sensor_id;sensor_type;location;lat;lon;timestamp;P1;durP1;ratioP1;P2;durP2;ratioP2
47796;SDS011;33558;50.922;14.068;2023-07-20T00:01:05;6.72;;;5.20;;
47796;SDS011;33558;50.922;14.068;2023-07-20T00:04:21;5.90;;;4.55;;
47796;SDS011;33558;50.922;14.068;2023-07-20T00:06:48;7.20;;;4.40;;
47796;SDS011;33558;50.922;14.068;2023-07-20T00:26:30;4.55;;;3.85;;
47796;SDS011;33558;50.922;14.068;2023-07-20T00:37:38;6.70;;;5.40;;
47796;SDS011;33558;50.922;14.068;2023-07-20T05:27:36;7.03;;;4.50;;
47796;SDS011;33558;50.922;14.068;2023-07-20T05:30:04;7.18;;;4.47;;
47796;SDS011;33558;50.922;14.068;2023-07-20T05:32:33;6.88;;;4.45;;
47796;SDS011;33558;50.922;14.068;2023-07-20T05:35:00;8.32;;;5.15;;
47796;SDS011;33558;50.922;14.068;2023-07-20T06:03:01;6.35;;;4.75;;
47796;SDS011;33558;50.922;14.068;2023-07-20T06:05:29;7.50;;;5.60;;
47796;SDS011;33558;50.922;14.068;2023-07-20T06:07:56;5.22;;;4.35;;
47796;SDS011;33558;50.922;14.068;2023-07-20T06:10:25;8.05;;;5.18;;
47796;SDS011;33558;50.922;14.068;2023-07-20T06:12:53;7.63;;;5.32;;
47796;SDS011;33558;50.922;14.068;2023-07-20T06:15:24;9.18;;;4.97;;
47796;SDS011;33558;50.922;14.068;2023-07-20T06:34:43;5.18;;;4.30;;
47796;SDS011;33558;50.922;14.068;2023-07-20T06:37:10;6.78;;;5.43;;
47796;SDS011;33558;50.922;14.068;2023-07-20T06:55:05;8.73;;;5.22;;
47796;SDS011;33558;50.922;14.068;2023-07-20T07:04:09;5.00;;;4.40;;
47796;SDS011;33558;50.922;14.068;2023-07-20T07:09:20;12.05;;;5.28;;
47796;SDS011;33558;50.922;14.068;2023-07-20T07:23:10;8.40;;;7.55;;
47796;SDS011;33558;50.922;14.068;2023-07-20T07:39:25;3.45;;;3.15;;
47796;SDS011;33558;50.922;14.068;2023-07-20T07:41:55;3.17;;;2.80;;
47796;SDS011;33558;50.922;14.068;2023-07-20T07:44:23;3.05;;;2.75;;
47796;SDS011;33558;50.922;14.068;2023-07-20T07:46:52;3.15;;;2.85;;
47796;SDS011;33558;50.922;14.068;2023-07-20T08:15:56;2.70;;;2.47;;
47796;SDS011;33558;50.922;14.068;2023-07-20T08:18:24;3.30;;;3.00;;
47796;SDS011;33558;50.922;14.068;2023-07-20T08:20:51;5.50;;;3.10;;
47796;SDS011;33558;50.922;14.068;2023-07-20T08:23:18;4.13;;;3.40;;
47796;SDS011;33558;50.922;14.068;2023-07-20T08:31:23;4.63;;;3.08;;
47796;SDS011;33558;50.922;14.068;2023-07-20T08:33:53;4.68;;;3.40;;
47796;SDS011;33558;50.922;14.068;2023-07-20T08:36:29;3.40;;;2.90;;
47796;SDS011;33558;50.922;14.068;2023-07-20T08:39:26;3.97;;;2.95;;
47796;SDS011;33558;50.922;14.068;2023-07-20T09:00:43;3.58;;;3.28;;
47796;SDS011;33558;50.922;14.068;2023-07-20T09:03:10;3.53;;;2.60;;
47796;SDS011;33558;50.922;14.068;2023-07-20T09:21:08;3.92;;;2.90;;
47796;SDS011;33558;50.922;14.068;2023-07-20T09:32:13;4.35;;;2.63;;
47796;SDS011;33558;50.922;14.068;2023-07-20T09:38:36;5.20;;;2.50;;
47796;SDS011;33558;50.922;14.068;2023-07-20T09:56:18;3.10;;;2.63;;
47796;SDS011;33558;50.922;14.068;2023-07-20T10:50:10;3.53;;;2.58;;
47796;SDS011;33558;50.922;14.068;2023-07-20T10:55:35;4.25;;;3.45;;
47796;SDS011;33558;50.922;14.068;2023-07-20T11:10:34;2.85;;;2.50;;
47796;SDS011;33558;50.922;14.068;2023-07-20T11:30:33;1.98;;;1.58;;
47796;SDS011;33558;50.922;14.068;2023-07-20T11:33:03;1.98;;;1.70;;
47796;SDS011;33558;50.922;14.068;2023-07-20T11:35:35;2.75;;;2.00;;
47796;SDS011;33558;50.922;14.068;2023-07-20T12:01:01;2.97;;;2.33;;
47796;SDS011;33558;50.922;14.068;2023-07-20T12:03:29;3.25;;;2.35;;
47796;SDS011;33558;50.922;14.068;2023-07-20T12:05:57;3.55;;;2.40;;
47796;SDS011;33558;50.922;14.068;2023-07-20T12:08:37;3.00;;;2.58;;
47796;SDS011;33558;50.922;14.068;2023-07-20T12:13:58;2.42;;;1.90;;
47796;SDS011;33558;50.922;14.068;2023-07-20T12:19:11;2.38;;;2.10;;
47796;SDS011;33558;50.922;14.068;2023-07-20T12:21:39;1.88;;;1.63;;
47796;SDS011;33558;50.922;14.068;2023-07-20T12:24:08;3.30;;;2.13;;
47796;SDS011;33558;50.922;14.068;2023-07-20T12:26:35;3.42;;;1.52;;
47796;SDS011;33558;50.922;14.068;2023-07-20T12:34:55;2.25;;;1.70;;
47796;SDS011;33558;50.922;14.068;2023-07-20T12:37:22;2.40;;;2.20;;
47796;SDS011;33558;50.922;14.068;2023-07-20T12:39:54;2.15;;;1.80;;
47796;SDS011;33558;50.922;14.068;2023-07-20T12:42:24;3.30;;;2.38;;
47796;SDS011;33558;50.922;14.068;2023-07-20T12:44:58;2.85;;;2.63;;
47796;SDS011;33558;50.922;14.068;2023-07-20T12:50:23;3.45;;;3.13;;
47796;SDS011;33558;50.922;14.068;2023-07-20T12:52:52;3.72;;;3.13;;
47796;SDS011;33558;50.922;14.068;2023-07-20T12:55:23;3.40;;;3.10;;
47796;SDS011;33558;50.922;14.068;2023-07-20T12:57:53;3.05;;;2.80;;
47796;SDS011;33558;50.922;14.068;2023-07-20T13:11:34;4.97;;;2.40;;
47796;SDS011;33558;50.922;14.068;2023-07-20T13:14:04;2.58;;;2.35;;
47796;SDS011;33558;50.922;14.068;2023-07-20T13:16:32;4.03;;;2.50;;
47796;SDS011;33558;50.922;14.068;2023-07-20T13:19:02;3.95;;;2.78;;
47796;SDS011;33558;50.922;14.068;2023-07-20T13:21:31;4.07;;;3.55;;
47796;SDS011;33558;50.922;14.068;2023-07-20T13:24:05;4.97;;;4.30;;
47796;SDS011;33558;50.922;14.068;2023-07-20T13:45:30;5.25;;;4.10;;
47796;SDS011;33558;50.922;14.068;2023-07-20T13:59:50;4.18;;;3.20;;
47796;SDS011;33558;50.922;14.068;2023-07-20T14:02:19;3.85;;;2.80;;
47796;SDS011;33558;50.922;14.068;2023-07-20T14:04:46;2.38;;;2.17;;
47796;SDS011;33558;50.922;14.068;2023-07-20T14:07:13;3.33;;;2.50;;
47796;SDS011;33558;50.922;14.068;2023-07-20T14:09:40;4.13;;;2.60;;
47796;SDS011;33558;50.922;14.068;2023-07-20T14:12:08;2.58;;;2.10;;
47796;SDS011;33558;50.922;14.068;2023-07-20T14:14:37;2.90;;;2.05;;
47796;SDS011;33558;50.922;14.068;2023-07-20T14:17:04;2.15;;;1.95;;
47796;SDS011;33558;50.922;14.068;2023-07-20T16:48:14;2.05;;;0.60;;
47796;SDS011;33558;50.922;14.068;2023-07-20T16:50:41;1.92;;;0.90;;
47796;SDS011;33558;50.922;14.068;2023-07-20T16:53:09;0.98;;;0.68;;
47796;SDS011;33558;50.922;14.068;2023-07-20T17:33:09;0.70;;;0.60;;
47796;SDS011;33558;50.922;14.068;2023-07-20T17:35:37;2.00;;;0.68;;
47796;SDS011;33558;50.922;14.068;2023-07-20T17:43:58;1.00;;;0.60;;
47796;SDS011;33558;50.922;14.068;2023-07-20T17:46:39;1.25;;;0.70;;
47796;SDS011;33558;50.922;14.068;2023-07-20T17:49:09;0.80;;;0.60;;
47796;SDS011;33558;50.922;14.068;2023-07-20T18:07:48;2.35;;;0.90;;
47796;SDS011;33558;50.922;14.068;2023-07-20T18:10:16;1.10;;;0.82;;
47796;SDS011;33558;50.922;14.068;2023-07-20T18:12:43;0.98;;;0.73;;
47796;SDS011;33558;50.922;14.068;2023-07-20T18:15:20;1.77;;;0.80;;
47796;SDS011;33558;50.922;14.068;2023-07-20T18:18:17;1.38;;;0.88;;
47796;SDS011;33558;50.922;14.068;2023-07-20T18:20:44;0.80;;;0.60;;
47796;SDS011;33558;50.922;14.068;2023-07-20T18:23:12;1.88;;;1.20;;
47796;SDS011;33558;50.922;14.068;2023-07-20T18:28:12;1.00;;;0.70;;
47796;SDS011;33558;50.922;14.068;2023-07-20T18:30:39;1.27;;;0.70;;
47796;SDS011;33558;50.922;14.068;2023-07-20T18:33:08;1.35;;;0.75;;
47796;SDS011;33558;50.922;14.068;2023-07-20T18:35:39;2.92;;;1.10;;
47796;SDS011;33558;50.922;14.068;2023-07-20T18:46:28;0.80;;;0.70;;
47796;SDS011;33558;50.922;14.068;2023-07-20T18:48:59;1.00;;;0.70;;
47796;SDS011;33558;50.922;14.068;2023-07-20T18:51:27;1.85;;;0.98;;
47796;SDS011;33558;50.922;14.068;2023-07-20T18:53:57;1.40;;;0.80;;
47796;SDS011;33558;50.922;14.068;2023-07-20T18:56:31;1.35;;;0.90;;
47796;SDS011;33558;50.922;14.068;2023-07-20T18:58:58;2.53;;;0.82;;
47796;SDS011;33558;50.922;14.068;2023-07-20T19:01:25;1.00;;;0.85;;
47796;SDS011;33558;50.922;14.068;2023-07-20T19:21:11;1.45;;;0.95;;
47796;SDS011;33558;50.922;14.068;2023-07-20T19:23:42;1.10;;;1.00;;
47796;SDS011;33558;50.922;14.068;2023-07-20T20:03:11;1.40;;;1.05;;
47796;SDS011;33558;50.922;14.068;2023-07-20T21:21:28;2.25;;;1.70;;
47796;SDS011;33558;50.922;14.068;2023-07-20T21:24:00;2.85;;;1.45;;
47796;SDS011;33558;50.922;14.068;2023-07-20T21:26:41;2.00;;;1.70;;
47796;SDS011;33558;50.922;14.068;2023-07-20T21:29:09;2.58;;;1.73;;
47796;SDS011;33558;50.922;14.068;2023-07-20T21:31:36;3.17;;;1.67;;
47796;SDS011;33558;50.922;14.068;2023-07-20T21:34:04;2.70;;;1.88;;
47796;SDS011;33558;50.922;14.068;2023-07-20T21:36:32;2.25;;;1.67;;
47796;SDS011;33558;50.922;14.068;2023-07-20T21:42:47;2.25;;;2.05;;
47796;SDS011;33558;50.922;14.068;2023-07-20T21:45:16;3.00;;;1.77;;
47796;SDS011;33558;50.922;14.068;2023-07-20T21:47:44;6.07;;;2.25;;
47796;SDS011;33558;50.922;14.068;2023-07-20T21:50:14;3.20;;;1.77;;
47796;SDS011;33558;50.922;14.068;2023-07-20T21:52:43;3.20;;;1.90;;
47796;SDS011;33558;50.922;14.068;2023-07-20T21:55:11;1.95;;;1.75;;
47796;SDS011;33558;50.922;14.068;2023-07-20T21:57:38;6.22;;;2.00;;
47796;SDS011;33558;50.922;14.068;2023-07-20T22:00:08;2.15;;;1.95;;
47796;SDS011;33558;50.922;14.068;2023-07-20T22:02:39;2.40;;;1.73;;
47796;SDS011;33558;50.922;14.068;2023-07-20T22:05:06;2.60;;;1.80;;
47796;SDS011;33558;50.922;14.068;2023-07-20T22:07:33;2.08;;;1.77;;
47796;SDS011;33558;50.922;14.068;2023-07-20T22:10:02;4.45;;;2.03;;
47796;SDS011;33558;50.922;14.068;2023-07-20T22:12:30;2.40;;;2.20;;
47796;SDS011;33558;50.922;14.068;2023-07-20T22:14:57;2.90;;;2.03;;
47796;SDS011;33558;50.922;14.068;2023-07-20T22:17:24;3.17;;;1.80;;
47796;SDS011;33558;50.922;14.068;2023-07-20T22:19:54;2.17;;;1.88;;
47796;SDS011;33558;50.922;14.068;2023-07-20T22:22:37;3.08;;;1.95;;
47796;SDS011;33558;50.922;14.068;2023-07-20T22:25:29;2.53;;;2.03;;
47796;SDS011;33558;50.922;14.068;2023-07-20T22:28:09;2.65;;;1.85;;
47796;SDS011;33558;50.922;14.068;2023-07-20T22:30:51;2.90;;;2.20;;
47796;SDS011;33558;50.922;14.068;2023-07-20T22:33:24;2.60;;;2.08;;
47796;SDS011;33558;50.922;14.068;2023-07-20T22:36:37;4.00;;;1.80;;
47796;SDS011;33558;50.922;14.068;2023-07-20T22:39:13;2.42;;;2.10;;
47796;SDS011;33558;50.922;14.068;2023-07-20T22:41:59;2.60;;;1.92;;
47796;SDS011;33558;50.922;14.068;2023-07-20T22:44:33;2.38;;;1.75;;
47796;SDS011;33558;50.922;14.068;2023-07-20T22:47:35;2.55;;;1.90;;
47796;SDS011;33558;50.922;14.068;2023-07-20T22:50:31;2.97;;;2.10;;
47796;SDS011;33558;50.922;14.068;2023-07-20T22:53:19;1.92;;;1.63;;
47796;SDS011;33558;50.922;14.068;2023-07-20T22:55:51;2.75;;;2.00;;
47796;SDS011;33558;50.922;14.068;2023-07-20T22:58:25;2.97;;;2.20;;
